createdAt,value
2019-04-04T00:01:22.652Z,4.00
2019-04-04T00:03:53.070Z,3.73
2019-04-04T00:06:26.689Z,3.77
2019-04-04T00:08:54.768Z,3.90
2019-04-04T00:11:24.161Z,4.07
2019-04-04T00:13:54.771Z,3.73
2019-04-04T00:16:24.146Z,3.90
2019-04-04T00:18:54.467Z,3.40
2019-04-04T00:21:24.811Z,3.90
2019-04-04T00:23:53.340Z,3.40
2019-04-04T00:26:22.689Z,3.20
2019-04-04T00:28:52.091Z,3.20
2019-04-04T00:31:20.960Z,3.57
2019-04-04T00:33:51.340Z,3.80
2019-04-04T00:36:20.660Z,3.83
2019-04-04T00:38:51.325Z,3.93
2019-04-04T00:41:20.637Z,3.50
2019-04-04T00:43:51.791Z,3.90
2019-04-04T00:46:24.082Z,3.57
2019-04-04T00:48:54.109Z,4.00
2019-04-04T00:51:26.534Z,3.67
2019-04-04T00:53:54.993Z,3.47
2019-04-04T00:56:25.309Z,3.53
2019-04-04T00:58:55.777Z,3.77
2019-04-04T01:01:27.190Z,4.00
2019-04-04T01:04:00.258Z,3.63
2019-04-04T01:06:30.123Z,3.30
2019-04-04T01:09:00.524Z,2.90
2019-04-04T01:11:32.430Z,3.07
2019-04-04T01:14:02.763Z,2.60
2019-04-04T01:16:34.087Z,3.40
2019-04-04T01:19:02.947Z,3.07
2019-04-04T01:21:33.011Z,3.10
2019-04-04T01:24:01.502Z,2.63
2019-04-04T01:26:34.856Z,3.37
2019-04-04T01:29:05.869Z,2.90
2019-04-04T01:31:36.365Z,3.23
2019-04-04T01:34:05.745Z,3.30
2019-04-04T01:36:35.129Z,3.40
2019-04-04T01:39:06.766Z,3.40
2019-04-04T01:41:39.451Z,3.00
2019-04-04T01:44:11.824Z,2.97
2019-04-04T01:46:42.202Z,3.00
2019-04-04T01:49:14.430Z,3.20
2019-04-04T01:51:45.582Z,3.13
2019-04-04T01:54:16.999Z,3.07
2019-04-04T01:56:47.399Z,2.87
2019-04-04T01:59:19.306Z,3.03
2019-04-04T02:01:48.691Z,3.20
2019-04-04T02:04:19.060Z,3.33
2019-04-04T02:06:49.465Z,4.23
2019-04-04T02:09:19.864Z,4.07
2019-04-04T02:11:50.246Z,4.10
2019-04-04T02:14:19.720Z,4.00
2019-04-04T02:16:51.610Z,4.43
2019-04-04T02:19:22.933Z,3.87
2019-04-04T02:21:53.362Z,4.13
2019-04-04T02:24:24.218Z,4.23
2019-04-04T02:26:53.546Z,4.53
2019-04-04T02:29:23.948Z,4.67
2019-04-04T02:31:57.681Z,4.33
2019-04-04T02:34:28.099Z,4.83
2019-04-04T02:36:58.627Z,4.80
2019-04-04T02:39:29.003Z,5.90
2019-04-04T02:41:59.348Z,6.07
2019-04-04T02:44:32.269Z,7.03
2019-04-04T02:47:01.804Z,6.47
2019-04-04T02:49:32.215Z,6.50
2019-04-04T02:52:01.571Z,7.07
2019-04-04T02:54:31.970Z,7.07
2019-04-04T02:57:02.859Z,7.47
2019-04-04T02:59:33.421Z,7.37
2019-04-04T03:02:05.769Z,8.00
2019-04-04T03:04:34.162Z,7.53
2019-04-04T03:07:03.709Z,7.07
2019-04-04T03:09:33.193Z,7.93
2019-04-04T03:12:03.575Z,7.27
2019-04-04T03:14:37.346Z,7.43
2019-04-04T03:17:06.777Z,6.93
2019-04-04T03:19:43.057Z,7.90
2019-04-04T03:22:10.663Z,8.27
2019-04-04T03:24:44.743Z,8.30
2019-04-04T03:27:13.081Z,9.30
2019-04-04T03:29:42.674Z,8.83
2019-04-04T03:32:14.400Z,9.27
2019-04-04T03:34:49.765Z,9.60
2019-04-04T03:37:16.560Z,10.03
2019-04-04T03:39:47.005Z,9.60
2019-04-04T03:42:17.419Z,10.23
2019-04-04T03:44:52.887Z,9.90
2019-04-04T03:47:19.950Z,10.40
2019-04-04T03:49:50.288Z,10.50
2019-04-04T03:52:19.662Z,10.10
2019-04-04T03:54:49.070Z,11.00
2019-04-04T03:57:19.654Z,10.87
2019-04-04T03:59:50.082Z,10.60
2019-04-04T04:02:19.784Z,10.93
2019-04-04T04:04:49.243Z,10.90
2019-04-04T04:07:18.766Z,11.97
2019-04-04T04:09:48.164Z,10.60
2019-04-04T04:12:18.520Z,11.43
2019-04-04T04:14:48.028Z,11.53
2019-04-04T04:17:18.419Z,11.40
2019-04-04T04:19:47.795Z,12.63
2019-04-04T04:22:19.275Z,13.53
2019-04-04T04:24:48.884Z,13.03
2019-04-04T04:27:21.266Z,13.53
2019-04-04T04:29:51.712Z,13.40
2019-04-04T04:32:22.792Z,13.27
2019-04-04T04:34:52.309Z,14.07
2019-04-04T04:37:21.733Z,13.63
2019-04-04T04:39:52.088Z,14.27
2019-04-04T04:42:26.322Z,14.07
2019-04-04T04:44:53.795Z,13.57
2019-04-04T04:47:25.653Z,13.37
2019-04-04T04:49:55.601Z,13.53
2019-04-04T04:52:26.123Z,13.87
2019-04-04T04:54:55.688Z,13.60
2019-04-04T04:57:29.736Z,13.57
2019-04-04T04:59:58.103Z,13.43
2019-04-04T05:02:28.510Z,14.00
2019-04-04T05:05:00.043Z,13.67
2019-04-04T05:07:30.588Z,13.03
2019-04-04T05:09:59.875Z,14.17
2019-04-04T05:12:29.238Z,13.23
2019-04-04T05:15:01.421Z,12.60
2019-04-04T05:17:31.471Z,12.53
2019-04-04T05:20:01.806Z,11.83
2019-04-04T05:22:32.309Z,12.77
2019-04-04T05:25:08.442Z,14.57
2019-04-04T05:27:35.097Z,13.13
2019-04-04T05:30:08.429Z,13.03
2019-04-04T05:32:39.219Z,13.03
2019-04-04T05:35:09.046Z,11.80
2019-04-04T05:37:41.596Z,11.47
2019-04-04T05:40:15.344Z,11.47
2019-04-04T05:42:47.346Z,11.50
2019-04-04T05:45:16.927Z,12.27
2019-04-04T05:47:47.397Z,12.70
2019-04-04T05:50:16.923Z,11.23
2019-04-04T05:52:47.281Z,12.23
2019-04-04T05:55:16.645Z,12.60
2019-04-04T05:57:47.034Z,13.20
2019-04-04T06:00:18.089Z,12.90
2019-04-04T06:02:48.499Z,13.03
2019-04-04T06:05:20.757Z,13.47
2019-04-04T06:07:53.150Z,13.60
2019-04-04T06:10:23.553Z,13.17
2019-04-04T06:12:57.308Z,13.30
2019-04-04T06:15:27.665Z,12.80
2019-04-04T06:17:58.107Z,11.73
2019-04-04T06:20:28.432Z,11.60
2019-04-04T06:22:58.821Z,10.70
2019-04-04T06:25:28.309Z,11.70
2019-04-04T06:27:59.215Z,11.43
2019-04-04T06:30:28.618Z,12.30
2019-04-04T06:32:59.088Z,12.03
2019-04-04T06:35:29.489Z,11.13
2019-04-04T06:38:00.115Z,12.00
2019-04-04T06:40:30.238Z,12.23
2019-04-04T06:43:03.539Z,11.70
2019-04-04T06:45:31.539Z,12.63
2019-04-04T06:48:01.009Z,13.47
2019-04-04T06:50:30.483Z,12.57
2019-04-04T06:53:00.865Z,12.50
2019-04-04T06:55:34.231Z,11.10
2019-04-04T06:58:08.336Z,11.97
2019-04-04T07:00:36.463Z,10.20
2019-04-04T07:03:09.904Z,11.37
2019-04-04T07:05:39.387Z,11.27
2019-04-04T07:08:15.188Z,11.40
2019-04-04T07:10:57.167Z,10.57
2019-04-04T07:13:22.133Z,9.90
2019-04-04T07:16:05.390Z,10.67
2019-04-04T07:18:22.161Z,9.77
2019-04-04T07:20:50.887Z,9.30
2019-04-04T07:23:20.363Z,8.08
2019-04-04T07:25:49.762Z,7.70
2019-04-04T07:28:20.127Z,7.15
2019-04-04T07:30:49.585Z,7.40
2019-04-04T07:33:21.460Z,7.50
2019-04-04T07:35:52.114Z,7.13
2019-04-04T07:38:22.474Z,7.47
2019-04-04T07:40:51.880Z,7.23
2019-04-04T07:43:22.159Z,6.77
2019-04-04T07:45:55.186Z,7.60
2019-04-04T07:48:24.726Z,7.43
2019-04-04T07:50:58.242Z,7.40
2019-04-04T07:53:28.147Z,6.43
2019-04-04T07:55:58.760Z,7.80
2019-04-04T07:58:30.632Z,6.37
2019-04-04T08:01:01.007Z,6.90
2019-04-04T08:03:30.522Z,6.60
2019-04-04T08:06:00.904Z,6.80
2019-04-04T08:08:30.392Z,7.77
2019-04-04T08:10:59.792Z,7.17
2019-04-04T08:13:30.135Z,6.37
2019-04-04T08:16:00.543Z,7.00
2019-04-04T08:18:30.953Z,7.37
2019-04-04T08:21:00.348Z,7.10
2019-04-04T08:23:30.453Z,6.47
2019-04-04T08:26:00.805Z,6.30
2019-04-04T08:28:31.322Z,6.40
2019-04-04T08:31:00.727Z,6.20
2019-04-04T08:33:31.185Z,6.60
2019-04-04T08:36:06.127Z,6.50
2019-04-04T08:38:33.263Z,6.97
2019-04-04T08:41:02.671Z,7.53
2019-04-04T08:43:33.017Z,6.53
2019-04-04T08:46:03.396Z,6.57
2019-04-04T08:48:32.829Z,6.90
2019-04-04T08:51:03.315Z,7.10
2019-04-04T08:53:39.871Z,6.87
2019-04-04T08:56:05.265Z,6.57
2019-04-04T08:58:34.669Z,6.87
2019-04-04T09:01:05.131Z,6.53
2019-04-04T09:03:37.110Z,6.67
2019-04-04T09:06:10.851Z,6.80
2019-04-04T09:08:41.167Z,6.40
2019-04-04T09:11:11.551Z,6.10
2019-04-04T09:13:42.998Z,6.03
2019-04-04T09:16:14.985Z,5.40
2019-04-04T09:18:45.460Z,5.67
2019-04-04T09:21:16.531Z,4.97
2019-04-04T09:23:46.953Z,5.10
2019-04-04T09:26:16.700Z,5.70
2019-04-04T09:28:46.070Z,5.40
2019-04-04T09:31:15.463Z,5.07
2019-04-04T09:33:45.950Z,4.90
2019-04-04T09:36:16.892Z,4.93
2019-04-04T09:38:47.397Z,4.87
2019-04-04T09:41:19.138Z,4.03
2019-04-04T09:43:49.537Z,4.60
2019-04-04T09:46:18.954Z,4.40
2019-04-04T09:48:48.373Z,4.10
2019-04-04T09:51:20.758Z,3.90
2019-04-04T09:53:53.282Z,3.70
2019-04-04T09:56:21.295Z,3.40
2019-04-04T09:58:54.795Z,2.53
2019-04-04T10:01:22.840Z,3.17
2019-04-04T10:03:52.261Z,3.07
2019-04-04T10:06:22.611Z,2.40
2019-04-04T10:08:52.140Z,2.70
2019-04-04T10:11:23.177Z,2.80
2019-04-04T10:13:52.652Z,2.60
2019-04-04T10:16:22.960Z,2.60
2019-04-04T10:18:53.871Z,3.47
2019-04-04T10:21:23.219Z,3.20
2019-04-04T10:23:54.074Z,3.07
2019-04-04T10:26:23.447Z,2.60
2019-04-04T10:28:52.292Z,2.70
2019-04-04T10:31:24.842Z,3.10
2019-04-04T10:33:55.261Z,3.27
2019-04-04T10:36:25.666Z,3.10
2019-04-04T10:38:55.162Z,3.30
2019-04-04T10:41:24.646Z,2.90
2019-04-04T10:43:56.973Z,3.23
2019-04-04T10:46:26.395Z,2.83
2019-04-04T10:48:56.741Z,3.33
2019-04-04T10:51:28.788Z,2.73
2019-04-04T10:53:59.211Z,3.00
2019-04-04T10:56:29.636Z,3.20
2019-04-04T10:59:00.045Z,3.70
2019-04-04T11:01:30.438Z,3.00
2019-04-04T11:03:59.925Z,3.17
2019-04-04T11:06:30.314Z,2.90
2019-04-04T11:09:02.699Z,3.10
2019-04-04T11:11:32.326Z,3.10
2019-04-04T11:14:01.678Z,3.07
2019-04-04T11:16:31.022Z,2.77
2019-04-04T11:19:01.398Z,2.80
2019-04-04T11:21:32.012Z,3.07
2019-04-04T11:24:00.905Z,3.73
2019-04-04T11:26:31.471Z,2.77
2019-04-04T11:29:01.994Z,2.90
2019-04-04T11:31:31.389Z,3.03
2019-04-04T11:34:01.743Z,3.37
2019-04-04T11:36:34.133Z,3.47
2019-04-04T11:39:06.668Z,3.20
2019-04-04T11:41:36.100Z,4.03
2019-04-04T11:44:06.602Z,3.50
2019-04-04T11:46:38.189Z,3.20
2019-04-04T11:49:08.573Z,3.57
2019-04-04T11:51:37.939Z,3.20
2019-04-04T11:54:07.343Z,3.30
2019-04-04T11:56:36.657Z,3.60
2019-04-04T11:59:08.168Z,3.17
2019-04-04T12:01:38.967Z,3.17
2019-04-04T12:04:08.450Z,2.90
2019-04-04T12:06:36.930Z,3.10
2019-04-04T12:09:08.303Z,3.23
2019-04-04T12:11:37.630Z,3.70
2019-04-04T12:14:07.091Z,3.33
2019-04-04T12:16:38.159Z,3.80
2019-04-04T12:19:07.517Z,4.80
2019-04-04T12:21:36.848Z,4.33
2019-04-04T12:24:07.310Z,4.40
2019-04-04T12:26:37.680Z,4.90
2019-04-04T12:29:08.022Z,5.40
2019-04-04T12:31:38.667Z,5.50
2019-04-04T12:34:08.077Z,5.33
2019-04-04T12:36:40.076Z,4.20
2019-04-04T12:39:10.615Z,4.90
2019-04-04T12:41:40.019Z,5.13
2019-04-04T12:44:09.501Z,4.67
2019-04-04T12:46:37.983Z,4.60
2019-04-04T12:49:07.480Z,4.70
2019-04-04T12:51:36.314Z,4.83
2019-04-04T12:54:05.859Z,4.60
2019-04-04T12:56:36.209Z,5.17
2019-04-04T12:59:05.726Z,4.40
2019-04-04T13:01:36.120Z,4.70
2019-04-04T13:04:06.446Z,5.13
2019-04-04T13:06:36.753Z,5.47
2019-04-04T13:09:10.197Z,5.23
2019-04-04T13:11:40.568Z,4.73
2019-04-04T13:14:10.076Z,5.00
2019-04-04T13:16:40.468Z,5.33
2019-04-04T13:19:09.269Z,4.77
2019-04-04T13:21:39.678Z,4.77
2019-04-04T13:24:09.187Z,5.20
2019-04-04T13:26:39.600Z,4.70
2019-04-04T13:29:11.438Z,4.90
2019-04-04T13:31:42.239Z,5.13
2019-04-04T13:34:11.602Z,5.67
2019-04-04T13:36:42.577Z,5.37
2019-04-04T13:39:12.141Z,5.50
2019-04-04T13:41:41.676Z,5.13
2019-04-04T13:44:11.072Z,4.63
2019-04-04T13:46:39.944Z,5.33
2019-04-04T13:49:11.663Z,5.30
2019-04-04T13:51:42.140Z,4.80
2019-04-04T13:54:12.464Z,4.70
2019-04-04T13:56:44.429Z,4.80
2019-04-04T13:59:16.372Z,4.47
2019-04-04T14:01:47.532Z,4.60
2019-04-04T14:04:20.287Z,4.63
2019-04-04T14:06:49.789Z,4.87
2019-04-04T14:09:19.170Z,4.70
2019-04-04T14:11:49.561Z,5.10
2019-04-04T14:14:19.922Z,4.30
2019-04-04T14:16:52.944Z,5.10
2019-04-04T14:19:23.957Z,5.70
2019-04-04T14:21:54.529Z,6.00
2019-04-04T14:24:24.946Z,5.87
2019-04-04T14:26:54.353Z,6.30
2019-04-04T14:29:27.731Z,5.80
2019-04-04T14:31:57.424Z,5.83
2019-04-04T14:34:26.873Z,6.17
2019-04-04T14:36:56.269Z,6.23
2019-04-04T14:39:26.649Z,6.17
2019-04-04T14:41:57.041Z,6.30
2019-04-04T14:44:28.022Z,7.00
2019-04-04T14:46:58.645Z,6.20
2019-04-04T14:49:27.111Z,6.67
2019-04-04T14:51:56.588Z,7.47
2019-04-04T14:54:25.095Z,6.77
2019-04-04T14:56:53.576Z,7.97
2019-04-04T14:59:24.045Z,7.77
2019-04-04T15:01:54.559Z,6.87
2019-04-04T15:04:25.580Z,8.43
2019-04-04T15:06:55.980Z,7.30
2019-04-04T15:09:26.549Z,7.67
2019-04-04T15:11:55.978Z,7.50
2019-04-04T15:14:27.959Z,9.17
2019-04-04T15:16:58.387Z,8.60
2019-04-04T15:19:30.163Z,8.77
2019-04-04T15:21:59.678Z,7.67
2019-04-04T15:24:30.175Z,8.77
2019-04-04T15:27:02.567Z,7.90
2019-04-04T15:29:32.089Z,9.27
2019-04-04T15:32:02.614Z,10.10
2019-04-04T15:34:35.037Z,10.53
2019-04-04T15:37:04.416Z,11.80
2019-04-04T15:39:32.926Z,12.33
2019-04-04T15:42:03.643Z,11.87
2019-04-04T15:44:33.051Z,15.63
2019-04-04T15:47:02.480Z,15.63
2019-04-04T15:49:32.847Z,16.23
2019-04-04T15:52:02.357Z,17.10
2019-04-04T15:54:32.858Z,16.60
2019-04-04T15:57:02.226Z,16.27
2019-04-04T15:59:34.601Z,16.90
2019-04-04T16:02:07.094Z,16.83
2019-04-04T16:04:37.717Z,16.83
2019-04-04T16:07:08.464Z,16.60
2019-04-04T16:09:37.949Z,17.20
2019-04-04T16:12:08.221Z,16.20
2019-04-04T16:14:37.622Z,15.07
2019-04-04T16:17:08.076Z,16.30
2019-04-04T16:19:40.461Z,16.80
2019-04-04T16:22:09.857Z,16.00
2019-04-04T16:24:40.225Z,15.73
2019-04-04T16:27:11.085Z,16.37
2019-04-04T16:29:44.278Z,15.60
2019-04-04T16:32:13.996Z,16.57
2019-04-04T16:34:43.426Z,16.00
2019-04-04T16:37:12.825Z,14.93
2019-04-04T16:39:43.318Z,14.80
2019-04-04T16:42:13.691Z,14.60
2019-04-04T16:44:44.094Z,15.40
2019-04-04T16:47:13.605Z,15.63
2019-04-04T16:49:44.173Z,15.83
2019-04-04T16:52:13.580Z,15.20
2019-04-04T16:54:44.018Z,14.97
2019-04-04T16:57:14.576Z,14.43
2019-04-04T16:59:44.080Z,13.50
2019-04-04T17:02:13.537Z,13.30
2019-04-04T17:04:44.002Z,13.77
2019-04-04T17:07:13.359Z,12.93
2019-04-04T17:09:43.766Z,14.10
2019-04-04T17:12:16.152Z,13.47
2019-04-04T17:14:46.484Z,12.43
2019-04-04T17:17:16.968Z,13.07
2019-04-04T17:19:49.355Z,13.07
2019-04-04T17:22:21.234Z,12.70
2019-04-04T17:24:50.645Z,12.97
2019-04-04T17:27:20.161Z,12.30
2019-04-04T17:29:48.753Z,13.00
2019-04-04T17:32:17.259Z,12.63
2019-04-04T17:34:47.751Z,12.07
2019-04-04T17:37:18.138Z,12.33
2019-04-04T17:39:47.937Z,12.37
2019-04-04T17:42:28.646Z,12.77
2019-04-04T17:44:49.521Z,11.07
2019-04-04T17:47:22.877Z,11.27
2019-04-04T17:49:53.652Z,10.87
2019-04-04T17:52:24.370Z,11.40
2019-04-04T17:54:53.726Z,11.50
2019-04-04T17:57:24.813Z,11.30
2019-04-04T17:59:54.285Z,10.80
2019-04-04T18:02:23.156Z,11.07
2019-04-04T18:04:54.880Z,11.23
2019-04-04T18:07:24.252Z,10.83
2019-04-04T18:09:53.657Z,10.30
2019-04-04T18:12:25.388Z,10.37
2019-04-04T18:14:56.711Z,10.83
2019-04-04T18:17:29.310Z,9.83
2019-04-04T18:19:58.146Z,10.33
2019-04-04T18:22:26.986Z,10.00
2019-04-04T18:24:57.498Z,10.43
2019-04-04T18:27:31.141Z,10.77
2019-04-04T18:30:00.562Z,10.87
2019-04-04T18:32:30.929Z,10.13
2019-04-04T18:35:00.293Z,10.90
2019-04-04T18:37:30.093Z,11.33
2019-04-04T18:40:02.071Z,15.63
2019-04-04T18:42:31.531Z,11.33
2019-04-04T18:45:01.895Z,11.70
2019-04-04T18:47:31.267Z,11.93
2019-04-04T18:50:00.661Z,12.10
2019-04-04T18:52:33.110Z,12.63
2019-04-04T18:55:03.511Z,12.73
2019-04-04T18:57:34.038Z,13.17
2019-04-04T19:00:03.531Z,12.83
2019-04-04T19:02:32.952Z,12.93
2019-04-04T19:05:02.355Z,13.20
2019-04-04T19:07:39.173Z,13.17
2019-04-04T19:10:04.083Z,14.67
2019-04-04T19:12:34.473Z,13.83
2019-04-04T19:15:07.589Z,14.23
2019-04-04T19:17:36.339Z,13.67
2019-04-04T19:20:12.854Z,14.13
2019-04-04T19:22:42.312Z,13.77
2019-04-04T19:25:13.920Z,15.23
2019-04-04T19:27:44.369Z,14.77
2019-04-04T19:30:13.458Z,15.23
2019-04-04T19:32:47.017Z,14.77
2019-04-04T19:35:18.222Z,15.87
2019-04-04T19:37:59.475Z,15.10
2019-04-04T19:40:21.730Z,14.83
2019-04-04T19:42:51.157Z,14.00
2019-04-04T19:45:21.839Z,14.27
2019-04-04T19:47:51.274Z,14.57
2019-04-04T19:50:20.833Z,14.63
2019-04-04T19:52:50.270Z,14.10
2019-04-04T19:55:19.656Z,13.57
2019-04-04T19:57:49.012Z,13.73
2019-04-04T20:00:20.020Z,13.63
2019-04-04T20:02:49.436Z,13.37
2019-04-04T20:05:21.104Z,12.00
2019-04-04T20:07:51.539Z,12.07
2019-04-04T20:10:21.930Z,12.23
2019-04-04T20:12:51.514Z,11.60
2019-04-04T20:15:21.844Z,10.83
2019-04-04T20:17:54.206Z,10.60
2019-04-04T20:20:24.720Z,11.63
2019-04-04T20:22:55.131Z,11.50
2019-04-04T20:25:25.537Z,11.03
2019-04-04T20:27:55.940Z,11.80
2019-04-04T20:30:39.553Z,10.90
2019-04-04T20:33:12.150Z,10.60
2019-04-04T20:35:42.610Z,10.17
2019-04-04T20:38:11.382Z,10.07
2019-04-04T20:40:40.747Z,8.87
2019-04-04T20:43:10.171Z,10.20
2019-04-04T20:45:40.529Z,9.43
2019-04-04T20:48:11.505Z,10.07
2019-04-04T20:50:40.976Z,9.03
2019-04-04T20:53:12.731Z,9.57
2019-04-04T20:55:42.218Z,10.87
2019-04-04T20:58:11.604Z,10.73
2019-04-04T21:00:42.192Z,10.07
2019-04-04T21:03:11.543Z,9.40
2019-04-04T21:05:43.509Z,10.10
2019-04-04T21:08:13.840Z,10.40
2019-04-04T21:10:44.316Z,10.50
2019-04-04T21:13:14.720Z,9.37
2019-04-04T21:15:45.230Z,10.50
2019-04-04T21:18:14.652Z,9.97
2019-04-04T21:20:45.002Z,10.17
2019-04-04T21:23:14.408Z,10.27
2019-04-04T21:25:46.331Z,10.07
2019-04-04T21:28:16.744Z,9.97
2019-04-04T21:30:47.457Z,10.70
2019-04-04T21:33:17.877Z,9.90
2019-04-04T21:35:47.267Z,9.70
2019-04-04T21:38:18.062Z,10.33
2019-04-04T21:40:48.458Z,10.17
2019-04-04T21:43:17.822Z,10.23
2019-04-04T21:45:47.220Z,10.97
2019-04-04T21:48:17.788Z,10.77
2019-04-04T21:50:47.189Z,9.67
2019-04-04T21:53:17.648Z,9.73
2019-04-04T21:55:47.988Z,10.63
2019-04-04T21:58:18.550Z,10.03
2019-04-04T22:00:48.264Z,10.33
2019-04-04T22:03:18.610Z,10.50
2019-04-04T22:05:49.167Z,10.50
2019-04-04T22:08:19.574Z,11.10
2019-04-04T22:10:49.056Z,11.73
2019-04-04T22:13:19.375Z,11.73
2019-04-04T22:15:48.801Z,11.07
2019-04-04T22:21:48.124Z,11.57
2019-04-04T22:24:17.581Z,11.27
2019-04-04T22:26:47.975Z,11.87
2019-04-04T22:29:17.374Z,11.60
2019-04-04T22:31:46.753Z,11.37
2019-04-04T22:34:18.775Z,12.40
2019-04-04T22:36:49.141Z,12.30
2019-04-04T22:39:19.572Z,11.80
2019-04-04T22:41:48.957Z,12.20
2019-04-04T22:44:19.353Z,11.90
2019-04-04T22:46:52.683Z,10.97
2019-04-04T22:49:23.097Z,11.57
2019-04-04T22:51:53.488Z,11.40
2019-04-04T22:54:22.867Z,11.60
2019-04-04T22:56:54.448Z,11.60
2019-04-04T22:59:24.983Z,11.83
2019-04-04T23:01:55.962Z,11.63
2019-04-04T23:04:25.436Z,12.43
2019-04-04T23:06:54.895Z,11.97
2019-04-04T23:09:24.300Z,12.13
2019-04-04T23:11:54.648Z,12.37
2019-04-04T23:14:25.037Z,13.17
2019-04-04T23:16:55.583Z,12.10
2019-04-04T23:19:25.969Z,12.50
2019-04-04T23:21:56.342Z,11.67
2019-04-04T23:24:26.708Z,12.03
2019-04-04T23:26:59.171Z,12.83
2019-04-04T23:29:29.532Z,13.43
2019-04-04T23:31:58.949Z,12.33
2019-04-04T23:34:30.639Z,12.87
2019-04-04T23:37:00.076Z,13.27
2019-04-04T23:39:34.021Z,12.67
2019-04-04T23:42:04.530Z,13.73
2019-04-04T23:44:34.947Z,13.03
2019-04-04T23:47:05.481Z,13.20
2019-04-04T23:49:35.759Z,12.50
2019-04-04T23:52:06.254Z,14.07
2019-04-04T23:54:37.909Z,13.53
2019-04-04T23:57:08.318Z,12.73
2019-04-04T23:59:38.914Z,13.60
